Airfield :
LOGIN :

Register | Disclaimer

   EN    FR    IT 

 










Legend :    VFR   Marginal VFR   IFR   Intensive IFR   Very Intensive IFR
Visi :
Ceiling :
>= 8 km
>= 3000ft
5 to 8 km
1000 to 3000 ft
1500m to 5 km
500 to 1000 ft
800 to 1500m
200 to 500 ft
< 800m
< 200 ft
Symbols :   Thunderstorms  Fog  Heavy snow  Heavy precipitations  Wind > 20 kt
SIGMETs :     Misc.  Thunderstorms  Icing  Turbulence  Mountain Waves  Volcanic Ashes






- Airport Elevation : 79 ft
- IATA code : NSY


LICZ - Sigonella (Mil) Catania

CURRENT METAR :
  • 070955Z 28002KT 9999 FEW020 26/14 Q1012 RMK FEW VIS MIN 9999 WIND THR28 21005KT WIND THR10 30005KT A2990 BLU

EXPIRED METARs :
  • 070855Z 05004KT 9999 FEW020 SCT100 23/17 Q1012 RMK BKN VIS MIN 9999 WIND THR28 19003KT WIND THR10 27005KT A2991 BLU
  • 070755Z 27006KT 9999 FEW020 SCT100 21/17 Q1012 RMK BKN VIS MIN 9999 WIND THR28 32001KT WIND THR10 28007KT A2990 BLU

TAF TAF LICZ
Valid from the 07 at 06:00 until the 08 at 06:00 UTC


070500Z 0706/0806 27005KT 9999 SCT100
BECMG 0710/0712 09010KT
BECMG 0720/0722 VRB03KT



MET'MAP, your aeronautical weather chart ! - Copyright ORBIFLY December 2007 - Disclaimer

ORBIFLY MET'MAP TEAM :

Programming & Development : Alexandra Zaïnal
Concept & original design : Baudouin d'Aumeries
Assistance for programming : Marc-Olivier Méhu
Technical & hardware support : Manuel Goepfert

Contact : metmap@orbifly.com




SOURCES & CREDITS :

   NOAA